Time;durP1;ratioP1;P1;durP2;ratioP2;P2;SDS_P1;SDS_P2;PMS_P1;PMS_P2;Temp;Humidity;BMP_temperature;BMP_pressure;BME280_temperature;BME280_humidity;BME280_pressure;Samples;Min_cycle;Max_cycle;Signal;HPM_P1;HPM_P2
2022/03/13 00:02:05;;;;;;;28.63;15.80;;;2.00;99.90;;;;;;4907930;28;20445;-72
2022/03/13 00:04:31;;;;;;;26.80;15.60;;;2.00;99.90;;;;;;4908653;28;20481;-72
2022/03/13 00:06:56;;;;;;;27.97;14.90;;;2.00;99.90;;;;;;4907590;28;20877;-73
2022/03/13 00:09:23;;;;;;;28.17;16.33;;;1.90;99.90;;;;;;4908685;28;20491;-76
2022/03/13 00:11:53;;;;;;;29.50;17.17;;;1.80;99.90;;;;;;4907334;28;20224;-73
2022/03/13 00:14:26;;;;;;;28.07;14.50;;;1.80;99.90;;;;;;4908468;28;20587;-73
2022/03/13 00:16:52;;;;;;;24.60;15.10;;;1.80;99.90;;;;;;4908443;28;20448;-72
2022/03/13 00:19:20;;;;;;;27.33;15.07;;;1.70;99.90;;;;;;4909337;28;20469;-73
2022/03/13 00:21:53;;;;;;;33.03;17.77;;;1.70;99.90;;;;;;4908290;28;20443;-73
2022/03/13 00:24:23;;;;;;;26.30;14.47;;;1.70;99.90;;;;;;4922966;28;21064;-72
2022/03/13 00:26:51;;;;;;;29.47;15.30;;;1.70;99.90;;;;;;4937183;28;20438;-74
2022/03/13 00:29:17;;;;;;;24.57;15.43;;;1.60;99.90;;;;;;4989967;28;20447;-74
2022/03/13 00:31:43;;;;;;;26.10;15.13;;;1.60;99.90;;;;;;4990432;28;20418;-74
2022/03/13 00:34:08;;;;;;;24.97;16.00;;;1.60;99.90;;;;;;4954068;28;20220;-74
2022/03/13 00:36:34;;;;;;;26.30;15.13;;;1.60;99.90;;;;;;4969928;28;20192;-74
2022/03/13 00:38:59;;;;;;;23.03;14.23;;;1.50;99.90;;;;;;4970703;28;20179;-74
2022/03/13 00:41:25;;;;;;;25.97;14.97;;;1.50;99.90;;;;;;4971248;28;20225;-75
2022/03/13 00:43:51;;;;;;;28.47;14.60;;;1.40;99.90;;;;;;4970840;28;20263;-75
2022/03/13 00:46:16;;;;;;;22.33;14.00;;;1.40;99.90;;;;;;4971309;28;20219;-76
2022/03/13 00:48:42;;;;;;;39.83;15.10;;;1.30;99.90;;;;;;4970989;28;20853;-74
2022/03/13 00:51:08;;;;;;;30.93;14.60;;;1.30;99.90;;;;;;4970685;28;20747;-75
2022/03/13 00:53:33;;;;;;;27.53;15.30;;;1.30;99.90;;;;;;4970778;28;20179;-75
2022/03/13 00:55:59;;;;;;;27.00;15.47;;;1.30;99.90;;;;;;4971750;28;20187;-73
2022/03/13 00:58:25;;;;;;;31.97;16.50;;;1.30;99.90;;;;;;4972784;28;20192;-72
2022/03/13 01:00:50;;;;;;;24.73;14.00;;;1.20;99.90;;;;;;4974726;28;20195;-72
2022/03/13 01:03:51;;;;;;;24.00;15.83;;;1.20;99.90;;;;;;4973576;28;20245;-74
2022/03/13 01:06:18;;;;;;;29.30;15.60;;;1.20;99.90;;;;;;4974278;28;20228;-73
2022/03/13 01:08:46;;;;;;;21.73;14.90;;;1.20;99.90;;;;;;4974675;28;20432;-72
2022/03/13 01:11:16;;;;;;;26.00;15.00;;;1.10;99.90;;;;;;4972720;28;20466;-72
2022/03/13 01:13:42;;;;;;;25.80;15.30;;;1.10;99.90;;;;;;4973510;28;20398;-72
2022/03/13 01:16:11;;;;;;;27.20;15.53;;;1.10;99.90;;;;;;4974573;28;20761;-72
2022/03/13 01:18:45;;;;;;;27.70;14.83;;;1.00;99.90;;;;;;4974141;28;20181;-72
2022/03/13 01:21:11;;;;;;;28.10;14.77;;;1.00;99.90;;;;;;4972020;28;20454;-72
2022/03/13 01:23:39;;;;;;;29.73;13.33;;;0.90;99.90;;;;;;4971748;28;21401;-72
2022/03/13 01:26:22;;;;;;;25.20;14.70;;;1.00;99.90;;;;;;4972873;28;20482;-73
2022/03/13 01:28:53;;;;;;;24.33;14.60;;;0.90;99.90;;;;;;4973410;28;20402;-72
2022/03/13 01:31:22;;;;;;;27.17;15.00;;;0.90;99.90;;;;;;4972293;28;20441;-72
2022/03/13 01:33:47;;;;;;;27.63;14.30;;;0.80;99.90;;;;;;4972120;28;20914;-73
2022/03/13 01:36:13;;;;;;;27.33;15.20;;;0.80;99.90;;;;;;4972249;28;20398;-74
2022/03/13 01:38:39;;;;;;;25.80;16.17;;;0.80;99.90;;;;;;4973423;28;20180;-73
2022/03/13 01:41:05;;;;;;;28.43;15.97;;;0.80;99.90;;;;;;4973981;28;20238;-73
2022/03/13 01:43:31;;;;;;;19.30;13.07;;;0.80;99.90;;;;;;4971463;28;20235;-74
2022/03/13 01:46:01;;;;;;;23.10;14.10;;;0.80;99.90;;;;;;4974177;28;21151;-72
2022/03/13 01:48:28;;;;;;;33.20;16.20;;;0.70;99.90;;;;;;4974157;28;20227;-73
2022/03/13 01:50:54;;;;;;;25.53;14.27;;;0.70;99.90;;;;;;4974841;28;20481;-73
2022/03/13 01:53:21;;;;;;;27.10;14.70;;;0.70;99.90;;;;;;4972264;28;20383;-73
2022/03/13 01:55:54;;;;;;;23.80;14.33;;;0.60;99.90;;;;;;4973704;28;20406;-73
2022/03/13 01:58:19;;;;;;;26.70;15.53;;;0.60;99.90;;;;;;4970124;28;20452;-73
2022/03/13 03:31:22;;;;;;;28.07;14.17;;;0.00;99.90;;;;;;5763358;23;20703;-71
2022/03/13 03:33:47;;;;;;;22.33;14.27;;;-0.10;99.90;;;;;;4986402;28;20431;-74
2022/03/13 03:36:15;;;;;;;29.63;14.70;;;-0.10;99.90;;;;;;4986400;28;20185;-73
2022/03/13 03:38:40;;;;;;;27.37;15.47;;;-0.10;99.90;;;;;;4991138;28;20191;-73
2022/03/13 03:41:06;;;;;;;29.40;15.63;;;-0.10;99.90;;;;;;4991505;28;20456;-73
2022/03/13 03:43:32;;;;;;;28.70;15.53;;;-0.10;99.90;;;;;;4986739;28;20202;-73
2022/03/13 03:45:57;;;;;;;32.00;15.40;;;-0.10;99.90;;;;;;4988753;28;20746;-73
2022/03/13 03:48:23;;;;;;;26.37;14.30;;;-0.10;99.90;;;;;;4987575;28;20184;-73
2022/03/13 03:50:49;;;;;;;35.47;16.73;;;-0.10;99.90;;;;;;4991360;28;20179;-73
2022/03/13 03:53:14;;;;;;;27.17;14.67;;;0.00;99.90;;;;;;4987307;28;20175;-73
2022/03/13 03:55:40;;;;;;;25.70;15.10;;;-0.10;99.90;;;;;;4989516;28;20248;-74
2022/03/13 03:58:05;;;;;;;18.87;13.73;;;-0.10;99.90;;;;;;4989145;28;20183;-73
2022/03/13 04:00:31;;;;;;;23.87;14.03;;;-0.10;99.90;;;;;;4990911;28;20180;-73
2022/03/13 04:02:57;;;;;;;32.00;15.40;;;-0.10;99.90;;;;;;4989355;28;20206;-71
2022/03/13 04:05:23;;;;;;;28.97;15.40;;;-0.10;99.90;;;;;;4987243;28;20441;-73
2022/03/13 04:07:48;;;;;;;25.17;14.00;;;-0.10;99.90;;;;;;4992462;28;20195;-73
2022/03/13 04:10:14;;;;;;;27.60;14.13;;;-0.10;99.90;;;;;;4990684;28;20403;-74
2022/03/13 04:12:39;;;;;;;24.80;12.73;;;-0.10;99.90;;;;;;4992124;28;20283;-73
2022/03/13 04:15:06;;;;;;;20.20;13.07;;;-0.10;99.90;;;;;;4988212;28;20329;-72
2022/03/13 04:17:32;;;;;;;24.83;12.70;;;-0.20;99.90;;;;;;4984442;28;20194;-74
2022/03/13 04:19:59;;;;;;;24.03;13.90;;;-0.10;99.90;;;;;;4989869;28;20433;-72
2022/03/13 04:22:24;;;;;;;25.73;13.67;;;-0.20;99.90;;;;;;4991865;28;20945;-71
2022/03/13 04:24:50;;;;;;;27.80;13.47;;;-0.20;99.90;;;;;;4990473;28;20441;-72
2022/03/13 04:27:15;;;;;;;24.00;12.53;;;-0.20;99.90;;;;;;4987279;28;20718;-73
2022/03/13 04:29:41;;;;;;;23.03;12.50;;;-0.20;99.90;;;;;;4991461;28;20168;-73
2022/03/13 04:32:08;;;;;;;26.40;13.30;;;-0.20;99.90;;;;;;4988675;28;20222;-73
2022/03/13 04:34:37;;;;;;;20.43;12.40;;;-0.20;99.90;;;;;;4988883;28;20202;-72
2022/03/13 04:37:04;;;;;;;19.37;12.77;;;-0.30;99.90;;;;;;4993234;28;20450;-73
2022/03/13 04:39:35;;;;;;;20.30;11.77;;;-0.30;99.90;;;;;;4994901;28;20390;-74
2022/03/13 04:42:05;;;;;;;20.10;12.23;;;-0.30;99.90;;;;;;4993494;28;20870;-73
2022/03/13 04:44:30;;;;;;;20.07;11.50;;;-0.30;99.90;;;;;;4994208;28;20433;-73
2022/03/13 04:46:56;;;;;;;20.10;12.30;;;-0.30;99.90;;;;;;4990718;28;20458;-71
2022/03/13 04:49:21;;;;;;;22.67;13.43;;;-0.30;99.90;;;;;;4994457;28;20668;-72
2022/03/13 04:51:47;;;;;;;18.40;11.27;;;-0.30;99.90;;;;;;4993758;28;20244;-73
2022/03/13 04:54:12;;;;;;;31.63;14.13;;;-0.30;99.90;;;;;;4991895;28;20209;-73
2022/03/13 04:56:38;;;;;;;19.47;11.93;;;-0.30;99.90;;;;;;4994494;28;20180;-72
2022/03/13 04:59:06;;;;;;;18.47;11.40;;;-0.30;99.90;;;;;;4988189;28;20183;-73
2022/03/13 05:01:31;;;;;;;24.03;12.87;;;-0.30;99.90;;;;;;4991369;28;20221;-72
2022/03/13 05:03:57;;;;;;;22.13;12.87;;;-0.30;99.90;;;;;;4991920;28;20438;-72
2022/03/13 05:06:23;;;;;;;23.17;11.73;;;-0.30;99.90;;;;;;4994118;28;20224;-73
2022/03/13 05:08:49;;;;;;;20.77;12.13;;;-0.30;99.90;;;;;;4992174;28;20439;-73
2022/03/13 05:11:15;;;;;;;23.30;13.00;;;-0.40;99.90;;;;;;4991874;28;20218;-73
2022/03/13 05:13:41;;;;;;;16.90;11.60;;;-0.30;99.90;;;;;;4991044;28;20504;-73
2022/03/13 05:16:06;;;;;;;25.50;14.13;;;-0.40;99.90;;;;;;4976923;28;21196;-72
2022/03/13 05:18:32;;;;;;;24.07;12.60;;;-0.40;99.90;;;;;;4993799;28;20194;-73
2022/03/13 05:20:58;;;;;;;21.50;12.27;;;-0.40;99.90;;;;;;4989614;28;20626;-72
2022/03/13 05:23:24;;;;;;;21.60;12.60;;;-0.40;99.90;;;;;;4992923;28;20443;-73
2022/03/13 05:25:50;;;;;;;23.33;12.40;;;-0.40;99.90;;;;;;4992324;28;20215;-72
2022/03/13 05:28:16;;;;;;;20.00;11.10;;;-0.40;99.90;;;;;;4993824;28;20816;-72
2022/03/13 05:30:42;;;;;;;23.17;12.23;;;-0.40;99.90;;;;;;4988929;28;20655;-73
2022/03/13 05:33:08;;;;;;;21.73;12.20;;;-0.40;99.90;;;;;;4986879;28;20453;-73
2022/03/13 05:35:34;;;;;;;28.97;11.53;;;-0.40;99.90;;;;;;4989409;28;20446;-73
2022/03/13 05:38:00;;;;;;;20.60;11.63;;;-0.40;99.90;;;;;;4992485;28;20508;-73
2022/03/13 05:40:26;;;;;;;20.67;11.47;;;-0.40;99.90;;;;;;4992991;28;20833;-72
2022/03/13 05:42:59;;;;;;;18.90;10.30;;;-0.40;99.90;;;;;;4989160;28;20955;-72
2022/03/13 05:45:26;;;;;;;20.80;12.50;;;-0.40;99.90;;;;;;4993177;28;20452;-71
2022/03/13 05:47:55;;;;;;;22.77;12.30;;;-0.40;99.90;;;;;;4991050;28;20432;-73
2022/03/13 05:50:22;;;;;;;22.50;12.27;;;-0.40;99.90;;;;;;4992508;28;20409;-72
2022/03/13 05:52:49;;;;;;;20.23;12.17;;;-0.30;99.90;;;;;;4988694;28;20474;-71
2022/03/13 05:55:16;;;;;;;20.40;12.30;;;-0.30;99.90;;;;;;4993500;28;20525;-72
2022/03/13 05:57:42;;;;;;;21.20;11.70;;;-0.30;99.90;;;;;;4991346;28;20446;-73
2022/03/13 06:00:10;;;;;;;16.13;12.23;;;-0.20;99.90;;;;;;4991224;28;20431;-75
2022/03/13 06:02:40;;;;;;;25.27;14.17;;;0.00;99.90;;;;;;4987925;28;20949;-73
2022/03/13 06:05:08;;;;;;;18.10;11.30;;;0.40;99.90;;;;;;4992544;28;20458;-74
2022/03/13 06:07:34;;;;;;;15.63;11.60;;;1.00;99.90;;;;;;4992791;28;20425;-74
2022/03/13 06:10:03;;;;;;;17.77;12.30;;;1.60;99.90;;;;;;4991249;28;20420;-74
2022/03/13 06:12:30;;;;;;;22.90;12.37;;;2.30;99.90;;;;;;4986195;28;20433;-74
2022/03/13 06:14:56;;;;;;;21.10;12.90;;;2.90;99.90;;;;;;4989886;28;20463;-75
2022/03/13 06:17:21;;;;;;;21.90;12.00;;;3.50;99.90;;;;;;4990744;28;20415;-74
2022/03/13 06:19:47;;;;;;;27.10;14.70;;;4.10;99.90;;;;;;4991659;28;20584;-75
2022/03/13 06:22:12;;;;;;;24.37;14.07;;;4.60;99.90;;;;;;4992954;28;20249;-74
2022/03/13 06:24:38;;;;;;;19.40;14.13;;;5.00;99.90;;;;;;4989174;28;20216;-73
2022/03/13 06:27:10;;;;;;;25.13;14.60;;;5.40;99.90;;;;;;4990527;28;20279;-74
2022/03/13 06:29:37;;;;;;;17.13;13.00;;;6.10;99.90;;;;;;4990538;28;20202;-74
2022/03/13 06:32:02;;;;;;;22.50;14.30;;;6.30;99.90;;;;;;4989905;28;20506;-75
2022/03/13 06:34:28;;;;;;;20.33;13.50;;;6.60;99.90;;;;;;4988304;28;20723;-73
2022/03/13 06:36:53;;;;;;;26.93;17.97;;;6.90;99.90;;;;;;4992418;28;20196;-73
2022/03/13 06:39:19;;;;;;;23.23;15.07;;;7.70;99.90;;;;;;4991603;28;20198;-73
2022/03/13 06:41:44;;;;;;;20.53;14.00;;;8.10;99.90;;;;;;4990668;28;20218;-74
2022/03/13 06:44:10;;;;;;;21.80;14.10;;;8.40;99.90;;;;;;4991498;28;20184;-74
2022/03/13 06:46:35;;;;;;;21.80;14.73;;;8.70;99.90;;;;;;4987540;28;20735;-74
2022/03/13 06:49:05;;;;;;;23.90;16.33;;;9.30;99.90;;;;;;4990740;28;20214;-72
2022/03/13 06:51:30;;;;;;;22.10;15.00;;;9.70;99.90;;;;;;4990282;28;20211;-74
2022/03/13 06:53:56;;;;;;;22.87;16.47;;;10.20;99.90;;;;;;4990794;28;20404;-74
2022/03/13 06:56:22;;;;;;;25.00;19.10;;;11.00;99.90;;;;;;4989387;28;20179;-75
2022/03/13 06:58:47;;;;;;;24.97;17.93;;;11.20;99.90;;;;;;4990213;28;20183;-74
2022/03/13 07:01:13;;;;;;;29.50;19.80;;;11.60;99.90;;;;;;4989999;28;20211;-75
2022/03/13 07:03:38;;;;;;;24.57;19.43;;;12.20;99.90;;;;;;4988797;28;20194;-75
2022/03/13 07:06:04;;;;;;;28.07;19.30;;;12.60;99.90;;;;;;4992103;28;20471;-74
2022/03/13 07:08:32;;;;;;;29.93;19.13;;;12.80;99.90;;;;;;4987172;28;20211;-74
2022/03/13 07:10:59;;;;;;;26.53;19.17;;;12.70;99.90;;;;;;4972177;28;20900;-71
2022/03/13 07:13:26;;;;;;;26.43;19.93;;;13.10;99.90;;;;;;4977957;28;20427;-71
2022/03/13 07:15:52;;;;;;;24.93;17.50;;;13.70;99.90;;;;;;4990602;28;20856;-73
2022/03/13 07:18:18;;;;;;;28.33;18.17;;;14.10;98.70;;;;;;4983964;28;20442;-73
2022/03/13 07:20:43;;;;;;;29.27;19.00;;;13.40;98.80;;;;;;4985543;28;20516;-73
2022/03/13 07:23:09;;;;;;;24.33;18.90;;;13.70;98.10;;;;;;4979427;28;20715;-73
2022/03/13 07:25:34;;;;;;;26.60;18.77;;;13.70;98.20;;;;;;4985552;28;20284;-72
2022/03/13 07:28:00;;;;;;;28.40;18.30;;;13.70;97.30;;;;;;4984174;28;20176;-74
2022/03/13 07:30:25;;;;;;;24.67;17.50;;;13.90;96.60;;;;;;4985012;28;20186;-72
2022/03/13 07:32:51;;;;;;;23.70;16.30;;;13.80;95.20;;;;;;4982880;28;20212;-74
2022/03/13 07:35:16;;;;;;;30.27;17.27;;;13.60;95.50;;;;;;4984960;28;20184;-73
2022/03/13 07:37:43;;;;;;;23.63;15.80;;;13.40;95.60;;;;;;4983231;28;20215;-74
2022/03/13 07:40:09;;;;;;;22.00;16.87;;;12.70;94.50;;;;;;4989426;28;20209;-75
2022/03/13 07:42:34;;;;;;;22.07;15.47;;;12.30;95.00;;;;;;4982345;28;20466;-76
2022/03/13 07:45:00;;;;;;;25.80;17.00;;;12.20;95.80;;;;;;4987329;28;20464;-73
2022/03/13 07:47:26;;;;;;;22.17;16.80;;;12.00;95.60;;;;;;4986060;28;20675;-74
2022/03/13 07:49:52;;;;;;;22.70;14.43;;;11.50;95.20;;;;;;4989552;28;20244;-74
2022/03/13 07:52:17;;;;;;;24.73;16.17;;;11.30;95.80;;;;;;4982471;28;20465;-74
2022/03/13 07:54:43;;;;;;;25.53;14.93;;;11.10;96.50;;;;;;4987049;28;20530;-76
2022/03/13 07:57:08;;;;;;;23.97;15.80;;;11.30;95.50;;;;;;4983947;28;20197;-75
2022/03/13 07:59:34;;;;;;;22.77;14.03;;;11.30;95.20;;;;;;4988497;28;20186;-76
2022/03/13 08:02:00;;;;;;;22.00;13.57;;;11.60;95.80;;;;;;4986097;28;20232;-75
2022/03/13 08:04:26;;;;;;;29.13;14.70;;;11.90;95.40;;;;;;4989796;28;20182;-73
2022/03/13 08:06:52;;;;;;;20.53;12.90;;;11.80;94.40;;;;;;4988895;28;20434;-74
2022/03/13 08:09:18;;;;;;;27.77;13.70;;;12.00;94.60;;;;;;4983442;28;20446;-73
2022/03/13 08:11:43;;;;;;;21.00;13.10;;;12.10;93.20;;;;;;4982175;28;20689;-75
2022/03/13 08:14:10;;;;;;;19.60;13.80;;;12.00;92.70;;;;;;4983079;28;20183;-73
2022/03/13 08:16:35;;;;;;;20.13;12.80;;;11.80;92.30;;;;;;4982088;28;20190;-74
2022/03/13 08:19:01;;;;;;;21.77;14.50;;;11.70;92.40;;;;;;4975542;28;20435;-73
2022/03/13 08:21:27;;;;;;;17.40;13.20;;;11.80;93.70;;;;;;4971002;28;20220;-74
2022/03/13 08:23:53;;;;;;;21.85;15.55;;;11.90;91.90;;;;;;4970982;28;20422;-74
2022/03/13 08:26:19;;;;;;;27.33;15.53;;;11.90;92.10;;;;;;4983819;28;20220;-74
2022/03/13 08:28:45;;;;;;;21.10;14.00;;;12.00;92.70;;;;;;4985972;28;20454;-75
2022/03/13 08:31:11;;;;;;;22.50;14.67;;;12.10;92.80;;;;;;4986378;28;20245;-75
2022/03/13 08:33:37;;;;;;;25.00;14.57;;;12.30;93.20;;;;;;4987686;28;20264;-72
2022/03/13 08:36:04;;;;;;;21.57;14.33;;;12.70;92.30;;;;;;4984199;28;20576;-75
2022/03/13 08:38:30;;;;;;;22.30;14.80;;;12.70;92.80;;;;;;4979846;28;20337;-74
2022/03/13 08:40:55;;;;;;;21.27;14.80;;;13.10;93.20;;;;;;4984365;28;20545;-75
2022/03/13 08:43:21;;;;;;;21.30;14.97;;;13.50;93.40;;;;;;4989618;28;20556;-74
2022/03/13 08:45:47;;;;;;;22.83;15.57;;;13.50;94.20;;;;;;4989758;28;20218;-75
2022/03/13 08:48:13;;;;;;;24.87;17.67;;;14.00;93.60;;;;;;4986301;28;20189;-74
2022/03/13 08:50:39;;;;;;;28.77;19.37;;;14.10;92.70;;;;;;4989692;28;20435;-74
2022/03/13 08:53:04;;;;;;;30.40;18.60;;;14.40;94.10;;;;;;4987919;28;20453;-74
2022/03/13 08:55:30;;;;;;;28.30;18.00;;;14.60;93.90;;;;;;4990274;28;20175;-73
2022/03/13 08:57:56;;;;;;;23.77;16.33;;;14.60;92.80;;;;;;4990532;28;20203;-74
2022/03/13 09:00:24;;;;;;;26.03;17.43;;;14.60;92.20;;;;;;4986450;28;20195;-73
2022/03/13 09:02:50;;;;;;;27.53;18.07;;;14.70;93.00;;;;;;4986529;28;20219;-73
2022/03/13 09:05:16;;;;;;;24.20;16.60;;;15.00;91.70;;;;;;4989978;28;20462;-75
2022/03/13 09:07:41;;;;;;;24.77;16.93;;;15.20;93.20;;;;;;4990325;28;20422;-75
2022/03/13 09:10:07;;;;;;;30.00;19.60;;;15.20;91.70;;;;;;4985399;28;20608;-73
2022/03/13 09:12:34;;;;;;;21.03;16.87;;;15.40;92.10;;;;;;4979739;28;20255;-74
2022/03/13 09:15:01;;;;;;;24.47;16.70;;;15.40;91.30;;;;;;4894466;28;20731;-74
2022/03/13 09:17:27;;;;;;;31.50;16.80;;;15.20;90.40;;;;;;4872683;28;20781;-76
2022/03/13 09:19:55;;;;;;;31.40;17.00;;;15.20;91.20;;;;;;4869955;28;21226;-76
2022/03/13 09:22:22;;;;;;;23.63;16.03;;;15.50;89.40;;;;;;4880040;28;20873;-75
2022/03/13 09:24:51;;;;;;;31.83;18.70;;;15.60;90.60;;;;;;4882881;28;20886;-77
2022/03/13 09:27:17;;;;;;;36.50;25.73;;;15.60;89.50;;;;;;4883962;28;20652;-75
2022/03/13 09:29:49;;;;;;;22.87;17.00;;;16.00;90.10;;;;;;4900832;28;20542;-72
2022/03/13 09:32:18;;;;;;;24.07;16.03;;;16.20;89.10;;;;;;4913348;28;20929;-75
2022/03/13 09:34:44;;;;;;;23.80;16.57;;;16.20;87.50;;;;;;4868561;28;21085;-76
2022/03/13 09:37:10;;;;;;;27.00;17.33;;;16.10;87.40;;;;;;4863418;28;20813;-75
2022/03/13 09:39:36;;;;;;;22.87;16.37;;;16.40;87.40;;;;;;4870782;28;20752;-75
2022/03/13 09:42:03;;;;;;;26.53;16.60;;;16.20;86.20;;;;;;4882867;28;20948;-75
2022/03/13 09:44:29;;;;;;;28.50;19.07;;;16.50;87.00;;;;;;4882236;28;20945;-75
2022/03/13 09:46:54;;;;;;;25.77;18.17;;;17.00;86.90;;;;;;4867147;28;20919;-76
2022/03/13 09:49:23;;;;;;;23.53;17.33;;;16.90;85.30;;;;;;4861314;28;20643;-75
2022/03/13 09:52:43;;;;;;;;;;;;;;;;;;;;;
2022/03/13 09:55:04;;;;;;;24.00;18.10;;;17.20;88.30;;;;;;4898060;28;20752;-78
2022/03/13 09:57:59;;;;;;;28.77;17.30;;;17.30;85.60;;;;;;4906914;28;20786;-76
2022/03/13 10:02:25;;;;;;;;;;;;;;;;;;;;;
2022/03/13 10:04:15;;;;;;;24.10;17.80;;;17.20;85.30;;;;;;4822281;28;20769;-75
2022/03/13 10:07:08;;;;;;;30.90;18.90;;;17.20;85.50;;;;;;4915648;28;20884;-75
2022/03/13 10:09:37;;;;;;;26.47;18.30;;;17.40;83.70;;;;;;4888160;28;21202;-76
2022/03/13 10:12:09;;;;;;;28.00;19.60;;;17.60;84.90;;;;;;4913400;28;20795;-76
2022/03/13 10:15:14;;;;;;;23.33;17.47;;;18.20;85.00;;;;;;4921198;28;20792;-76
2022/03/13 10:18:07;;;;;;;31.67;19.37;;;18.30;82.60;;;;;;4842153;29;20772;-76
2022/03/13 10:27:20;;;;;;;27.23;19.13;;;18.00;80.40;;;;;;4757704;29;20747;-75
2022/03/13 10:29:47;;;;;;;28.00;19.77;;;18.20;81.30;;;;;;4746995;29;21130;-75
2022/03/13 10:32:17;;;;;;;26.90;19.80;;;18.20;82.40;;;;;;4789789;28;21304;-75
2022/03/13 10:34:56;;;;;;;27.70;19.23;;;18.70;82.60;;;;;;4854875;28;20667;-75
2022/03/13 10:37:45;;;;;;;32.13;20.87;;;18.90;78.50;;;;;;4881749;28;21030;-77
2022/03/13 10:40:24;;;;;;;32.40;21.13;;;19.00;80.20;;;;;;4883807;28;20803;-76
2022/03/13 10:42:53;;;;;;;25.43;19.07;;;19.10;80.60;;;;;;4876770;28;20946;-78
2022/03/13 10:45:37;;;;;;;31.27;19.90;;;19.30;79.60;;;;;;4864121;28;20726;-77
2022/03/13 10:48:18;;;;;;;31.10;20.77;;;19.30;76.50;;;;;;4871255;28;21162;-76
2022/03/13 10:50:45;;;;;;;30.30;20.23;;;19.20;77.30;;;;;;4906027;28;20447;-75
2022/03/13 10:53:12;;;;;;;37.63;21.40;;;18.90;77.10;;;;;;4981651;28;20442;-76
2022/03/13 10:55:39;;;;;;;31.47;20.70;;;19.10;79.00;;;;;;4985287;28;20419;-75
2022/03/13 10:58:04;;;;;;;27.77;19.83;;;19.20;76.10;;;;;;4989107;28;20951;-76
2022/03/13 11:00:30;;;;;;;32.63;21.00;;;19.50;77.20;;;;;;4989376;28;20476;-76
2022/03/13 11:03:17;;;;;;;27.07;20.80;;;19.60;77.20;;;;;;4989087;28;20203;-75
2022/03/13 11:05:42;;;;;;;36.07;22.90;;;19.50;75.60;;;;;;4974137;28;20508;-76
2022/03/13 11:08:08;;;;;;;30.90;21.97;;;19.30;74.20;;;;;;4989766;28;20466;-76
2022/03/13 11:10:37;;;;;;;33.43;21.10;;;19.10;75.00;;;;;;4983153;28;20183;-76
2022/03/13 11:13:06;;;;;;;32.93;22.50;;;19.20;76.30;;;;;;4981147;28;20603;-76
2022/03/13 11:15:35;;;;;;;28.13;20.60;;;19.10;77.10;;;;;;4967921;28;21027;-75
2022/03/13 11:18:02;;;;;;;35.13;21.90;;;18.90;75.40;;;;;;4982456;28;20545;-75
2022/03/13 11:20:30;;;;;;;32.20;22.23;;;18.60;76.30;;;;;;4964726;28;20431;-76
2022/03/13 11:22:55;;;;;;;34.83;21.83;;;18.70;76.40;;;;;;4980809;28;20855;-75
2022/03/13 11:25:23;;;;;;;31.33;20.90;;;18.90;76.90;;;;;;4980712;28;20454;-75
2022/03/13 11:27:51;;;;;;;35.90;23.00;;;18.90;76.90;;;;;;4985194;28;20245;-76
2022/03/13 11:30:35;;;;;;;30.73;21.40;;;19.00;77.10;;;;;;4982287;28;20877;-75
2022/03/13 11:33:02;;;;;;;28.40;20.57;;;18.80;76.40;;;;;;4987005;28;20438;-76
2022/03/13 11:35:32;;;;;;;30.87;21.77;;;18.70;77.10;;;;;;4983613;28;20427;-75
2022/03/13 11:38:00;;;;;;;37.60;22.33;;;18.70;76.50;;;;;;4984444;28;20485;-75
2022/03/13 11:40:36;;;;;;;34.37;22.53;;;19.00;76.70;;;;;;4981901;28;20522;-76
2022/03/13 11:43:16;;;;;;;29.70;21.40;;;18.90;76.30;;;;;;4982471;28;20436;-76
2022/03/13 11:45:52;;;;;;;33.33;20.97;;;18.70;75.10;;;;;;4963462;28;20470;-75
2022/03/13 11:48:19;;;;;;;33.30;23.20;;;18.80;76.30;;;;;;4980058;28;20462;-75
2022/03/13 11:50:49;;;;;;;30.60;21.90;;;18.70;76.00;;;;;;4981827;28;20423;-75
2022/03/13 11:53:19;;;;;;;35.50;22.83;;;18.30;76.10;;;;;;4979303;28;20848;-76
2022/03/13 11:55:57;;;;;;;35.40;22.57;;;18.20;76.00;;;;;;4979531;28;20987;-75
2022/03/13 11:58:38;;;;;;;32.67;20.80;;;17.50;77.00;;;;;;4984362;28;20800;-76
2022/03/13 12:01:15;;;;;;;26.87;19.07;;;17.90;77.30;;;;;;4980836;28;20994;-76
2022/03/13 12:04:07;;;;;;;31.40;19.57;;;17.80;77.10;;;;;;4980972;28;20444;-75
2022/03/13 12:06:46;;;;;;;30.63;20.30;;;17.60;77.00;;;;;;4982285;28;20833;-75
2022/03/13 12:09:13;;;;;;;30.20;19.97;;;17.60;77.40;;;;;;4984764;28;20577;-75
2022/03/13 12:12:03;;;;;;;38.40;22.07;;;17.80;77.70;;;;;;4988371;28;20458;-75
2022/03/13 12:14:48;;;;;;;34.13;21.70;;;18.00;79.20;;;;;;4974837;28;20426;-73
2022/03/13 12:17:15;;;;;;;36.03;20.33;;;18.10;76.40;;;;;;4979244;28;20844;-74
2022/03/13 12:19:41;;;;;;;33.23;20.83;;;18.10;77.60;;;;;;4987092;28;20433;-72
2022/03/13 12:22:07;;;;;;;34.00;20.83;;;17.80;75.80;;;;;;4981411;28;20978;-74
2022/03/13 12:24:33;;;;;;;31.50;20.17;;;17.30;76.20;;;;;;4986404;28;20182;-73
2022/03/13 12:27:02;;;;;;;35.17;20.53;;;17.30;77.40;;;;;;4971778;28;21102;-73
2022/03/13 12:29:32;;;;;;;35.63;21.43;;;17.20;76.50;;;;;;4987256;28;20463;-72
2022/03/13 12:31:59;;;;;;;34.70;21.33;;;17.40;77.60;;;;;;4986390;28;20466;-73
2022/03/13 12:34:30;;;;;;;31.00;20.50;;;17.60;77.00;;;;;;4988072;28;20447;-73
2022/03/13 12:37:02;;;;;;;34.87;19.87;;;17.30;76.00;;;;;;4988937;28;20493;-73
2022/03/13 12:39:28;;;;;;;34.57;20.60;;;17.30;75.50;;;;;;4986294;28;20449;-72
2022/03/13 12:41:59;;;;;;;31.70;19.93;;;17.00;76.40;;;;;;4973164;28;20436;-72
2022/03/13 12:44:27;;;;;;;36.63;21.20;;;17.20;77.00;;;;;;4987232;28;20438;-72
2022/03/13 12:46:54;;;;;;;31.13;20.50;;;17.30;75.90;;;;;;4988679;28;20445;-73
2022/03/13 12:49:36;;;;;;;28.53;19.60;;;17.30;75.50;;;;;;4970801;28;20442;-72
2022/03/13 12:52:02;;;;;;;31.63;20.30;;;17.40;76.40;;;;;;4988634;28;20822;-73
2022/03/13 12:54:29;;;;;;;30.40;18.57;;;17.30;75.90;;;;;;4990542;28;20441;-72
2022/03/13 12:57:00;;;;;;;31.73;20.50;;;17.50;76.30;;;;;;4993100;28;20433;-73
2022/03/13 12:59:28;;;;;;;28.13;20.17;;;17.60;76.00;;;;;;4977042;28;20415;-73
2022/03/13 13:02:25;;;;;;;30.17;19.53;;;17.60;74.90;;;;;;4987228;28;20455;-73
2022/03/13 13:05:04;;;;;;;32.73;20.93;;;17.60;75.50;;;;;;4990035;28;20488;-73
2022/03/13 13:07:32;;;;;;;28.93;19.67;;;17.70;75.30;;;;;;4991935;28;20488;-73
2022/03/13 13:10:04;;;;;;;33.83;20.17;;;17.60;73.70;;;;;;4992474;28;20531;-73
2022/03/13 13:12:31;;;;;;;31.50;20.57;;;17.40;74.20;;;;;;4973878;28;20517;-73
2022/03/13 13:14:59;;;;;;;32.20;19.37;;;17.30;75.00;;;;;;4992683;28;20458;-70
2022/03/13 13:17:27;;;;;;;30.63;20.30;;;17.30;75.00;;;;;;4991830;28;20568;-72
2022/03/13 13:19:55;;;;;;;37.97;20.50;;;17.20;75.00;;;;;;4992422;28;20501;-71
2022/03/13 13:22:32;;;;;;;31.67;20.60;;;17.20;76.10;;;;;;4978443;28;20490;-72
2022/03/13 13:25:14;;;;;;;34.63;21.33;;;17.30;75.80;;;;;;4979159;28;20468;-72
2022/03/13 13:27:56;;;;;;;30.07;20.43;;;17.30;74.90;;;;;;4987275;28;20438;-71
2022/03/13 13:30:27;;;;;;;29.73;18.67;;;17.10;74.40;;;;;;4988586;28;20438;-71
2022/03/13 13:33:14;;;;;;;26.20;17.30;;;17.10;75.80;;;;;;4984337;28;20478;-71
2022/03/13 13:35:46;;;;;;;28.83;19.73;;;17.10;75.10;;;;;;4984674;28;20433;-72
2022/03/13 13:38:17;;;;;;;34.63;20.73;;;17.10;76.10;;;;;;4991486;28;20437;-73
2022/03/13 13:40:56;;;;;;;34.13;21.87;;;17.20;75.40;;;;;;4989093;28;20964;-72
2022/03/13 13:43:24;;;;;;;28.40;19.03;;;17.20;76.10;;;;;;4991739;28;20418;-73
2022/03/13 13:46:20;;;;;;;27.00;19.07;;;17.10;75.90;;;;;;4983367;28;20895;-73
2022/03/13 13:48:47;;;;;;;32.37;18.87;;;17.10;76.50;;;;;;4987292;28;20477;-72
2022/03/13 13:51:22;;;;;;;32.57;20.40;;;17.10;75.80;;;;;;4988682;28;20516;-74
2022/03/13 13:53:54;;;;;;;29.50;20.00;;;17.20;75.70;;;;;;4980264;28;20434;-72
2022/03/13 13:56:31;;;;;;;31.83;20.57;;;17.20;76.00;;;;;;4988927;28;20431;-73
2022/03/13 13:58:58;;;;;;;36.87;20.37;;;17.10;76.50;;;;;;4980591;28;20426;-70
2022/03/13 14:01:31;;;;;;;32.17;19.90;;;17.10;76.70;;;;;;4977507;28;20451;-73
2022/03/13 14:03:59;;;;;;;28.37;18.33;;;17.20;76.20;;;;;;4934234;28;20558;-73
2022/03/13 14:06:33;;;;;;;34.83;20.47;;;17.20;76.10;;;;;;4901110;28;20850;-73
2022/03/13 14:08:59;;;;;;;29.57;19.87;;;17.10;75.80;;;;;;4910386;28;20458;-74
2022/03/13 14:11:24;;;;;;;30.73;19.10;;;17.00;74.50;;;;;;4917213;28;20501;-73
2022/03/13 14:13:50;;;;;;;30.90;20.27;;;16.90;75.50;;;;;;4922383;28;20563;-74
2022/03/13 14:16:18;;;;;;;34.80;19.00;;;16.80;75.90;;;;;;4905922;28;20315;-73
2022/03/13 14:18:47;;;;;;;32.07;18.50;;;16.90;76.00;;;;;;4913608;28;20223;-73